LFBO/TLS METAR and TAF weather

Enter ICAO airport designator
Station Type Date Time Source
LFBO METAR 2018/12/10 08:30 UTC NOAA

LFBO 100830Z AUTO 30008KT 9999 FEW013 SCT020 BKN029 09/07 Q1033 NOSIG


Station Type Date Time Source
LFBO Decoded METAR 2018/12/10 08:30 UTC NOAA

Toulouse / Blagnac, France (LFBO) 43-38N 001-22E 153M
Dec 10, 2018 - 03:30 AM EST / 2018.12.10 0830 UTC
Wind: from the WNW (300 degrees) at 9 MPH (8 KT):0
Visibility: greater than 7 mile(s):0
Sky conditions: mostly cloudy
Temperature: 48 F (9 C)
Dew Point: 44 F (7 C)
Relative Humidity: 87%
Pressure (altimeter): 30.50 in. Hg (1033 hPa)
ob: LFBO 100830Z AUTO 30008KT 9999 FEW013 SCT020 BKN029 09/07 Q1033 NOSIG
cycle: 8

Station Type Date Time Source
LFBO TAF 2018/12/10 06:21 UTC NOAA

TAF LFBO 100500Z 1006/1112 26012KT CAVOK
TEMPO 1008/1013 BKN025
BECMG 1010/1012 32008KT
BECMG 1018/1020 VRB02KT
BECMG 1022/1024 3000 BR
TEMPO 1100/1110 0300 FG VV///
BECMG 1110/1112 BKN005


Example: see airport list